This is the latest recevied weather packets stored in our database for station/object DB0NU-15. If no packets are shown the sender has not sent any weather packets the latest 10 day(s).
| Time | Temp. | Humidity | Pressure | Rain* | Wind** | Luminosity | Snow |
|---|---|---|---|---|---|---|---|
| 1777302658 | 17.78° C | 30% | 1021 hPa | 0 mm | - | - | - |
| 1777302055 | 18.33° C | 29% | 1021.2 hPa | 0 mm | - | - | - |
| 1777301451 | 17.22° C | 29% | 1021.3 hPa | 0 mm | - | - | - |
| 1777300848 | 17.78° C | 30% | 1021.5 hPa | 0 mm | - | - | - |
| 1777300245 | 17.22° C | 28% | 1021.4 hPa | 0 mm | - | - | - |
| 1777299641 | 17.78° C | 28% | 1021.6 hPa | 0 mm | - | - | - |
| 1777299037 | 17.78° C | 29% | 1021.7 hPa | 0 mm | - | - | - |
| 1777297831 | 17.78° C | 28% | 1021.9 hPa | 0 mm | - | - | - |
| 1777297227 | 17.78° C | 29% | 1022 hPa | 0 mm | - | - | - |
| 1777296624 | 17.22° C | 27% | 1022.1 hPa | 0 mm | - | - | - |
| 1777296020 | 17.22° C | 28% | 1022.3 hPa | 0 mm | - | - | - |
| 1777295417 | 17.78° C | 28% | 1022.3 hPa | 0 mm | - | - | - |
| 1777294874 | 17.78° C | 28% | 1022.4 hPa | 0 mm | - | - | - |
| 1777293667 | 17.78° C | 26% | 1022.4 hPa | 0 mm | - | - | - |
| 1777293064 | 17.78° C | 25% | 1022.4 hPa | 0 mm | - | - | - |
| 1777291857 | 17.78° C | 26% | 1022.6 hPa | 0 mm | - | - | - |
| 1777291253 | 17.78° C | 26% | 1022.7 hPa | 0 mm | - | - | - |
| 1777290649 | 17.22° C | 28% | 1022.8 hPa | 0 mm | - | - | - |
| 1777289442 | 17.22° C | 32% | 1023.1 hPa | 0 mm | - | - | - |
| 1777288839 | 17.22° C | 32% | 1023 hPa | 0 mm | - | - | - |
| 1777288235 | 17.22° C | 31% | 1023.1 hPa | 0 mm | - | - | - |
| 1777287632 | 17.22° C | 32% | 1023.2 hPa | 0 mm | - | - | - |
| 1777287028 | 16.67° C | 32% | 1023.2 hPa | 0 mm | - | - | - |
| 1777285821 | 16.67° C | 33% | 1023.4 hPa | 0 mm | - | - | - |
| 1777284675 | 15.56° C | 35% | 1023.5 hPa | 0 mm | - | - | - |
* Rain latest hour (hover to see other rain measurements)
** Current wind speed in m/s (hover to see current wind gust speed)